New Harbor, ME (Heathkit)

43° 52' 34"N, 69° 29' 40"W, Elevation 65 ft.
Eastern Time

Hourly observations for the last 72 hours

Date Time Temperature (°F) Humi-
dity

(%)
Wind
(mph)
Pressure Rain (in)
Air Dew 6 Hour 1 Hr 3 Hr 6 Hr Day
Alt
(in)
Sea
Level

(mb)
Max Min
6 14:00 74 67 76 61 78 SE 8 G 17 29.52 999.7 0.22
6 13:00 75 65 72 S 6 G 18 29.50 999.0 0.22
6 12:00 75 65 72 SE 4 G 18 29.48 998.3 0.22
6 11:00 75 63 67 SSW 4 G 15 29.45 997.3 0.22
6 10:00 72 55 55 S 3 G 9 29.44 997.0 0.22
6 09:00 68 39 35 SW 2 G 10 29.44 997.0 0.22
6 08:00 65 36 65 55 34 SW 2 G 9 29.43 996.6 0.01 0.11 0.22
6 07:00 64 37 36 SW 3 G 9 29.42 996.3 0.22
6 06:00 63 37 38 SSW 3 G 12 29.42 996.3 0.01 0.22
6 05:00 63 37 38 S 4 G 12 29.42 996.3 0.01 0.10 0.21
6 04:00 61 37 40 S 8 G 24 29.44 997.0 0.03 0.20
6 03:00 61 38 42 S 7 G 18 29.49 998.7 0.06 0.17
6 02:00 61 40 65 54 45 S 9 G 18 29.53 1000.0 0.04 0.14 0.16 0.11
6 01:00 61 41 47 S 7 G 21 29.58 1001.7 0.07 0.07
6 00:00 63 42 47 S 7 G 16 29.61 1002.7 0.03 0.04
5 23:00 63 44 50 S 8 G 18 29.61 1002.7 0.02 0.02 0.02
5 22:00 64 47 54 S 6 G 13 29.64 1003.8 0.00
5 21:00 64 48 55 S 2 G 6 29.66 1004.4 0.00
5 20:00 65 49 74 60 56 S 3 G 10 29.67 1004.8 0.00
5 19:00 65 50 58 S 3 G 10 29.68 1005.1 0.00
5 18:00 66 51 59 S 4 G 10 29.70 1005.8 0.00
5 17:00 68 54 60 S 5 G 10 29.73 1006.8 0.00
5 16:00 70 57 64 SSW 4 G 12 29.73 1006.8 0.00
5 15:00 73 68 84 S 3 G 12 29.75 1007.5 0.00
5 14:00 74 66 82 63 76 S 3 G 9 29.76 1007.8 0.00
5 13:00 77 63 61 S 5 G 12 29.79 1008.8 0.00
5 12:00 80 61 53 SSE 6 G 12 29.80 1009.2 0.00
5 11:00 76 62 61 S 4 G 10 29.82 1009.9 0.00
5 10:00 76 61 60 SSW 2 G 6 29.83 1010.2 0.00
5 09:00 73 59 62 S 3 G 7 29.84 1010.5 0.00
5 08:00 66 55 66 53 68 S 1 G 6 29.85 1010.9 0.00
5 07:00 61 47 61 SW 2 G 6 29.85 1010.9 0.00
5 06:00 58 44 60 S 2 G 3 29.85 1010.9 0.00
5 05:00 56 43 61 S 2 G 4 29.84 1010.5 0.00
5 04:00 55 42 62 S 3 G 4 29.84 1010.5 0.00
5 03:00 56 43 62 SSW 2 G 4 29.83 1010.2 0.00
5 02:00 57 46 71 53 67 S 2 G 2 29.83 1010.2 0.00
5 01:00 57 47 68 S 2 G 4 29.84 1010.5 0.00
5 00:00 58 48 69 S 2 G 3 29.83 1010.2 0.00
4 23:00 59 50 73 S 2 G 2 29.83 1010.2 0.00
4 22:00 61 52 72 S 1 G 2 29.83 1010.2 0.00
4 21:00 66 59 79 S 1 G 2 29.82 1009.9 0.00
4 20:00 71 57 80 67 61 S 1 G 4 29.80 1009.2 0.00
4 19:00 75 59 57 SE 1 G 8 29.79 1008.8 0.00
4 18:00 75 64 68 S 1 G 4 29.78 1008.5 0.00
4 17:00 74 63 69 S 5 G 11 29.79 1008.8 0.00
4 16:00 77 63 62 S 5 G 15 29.79 1008.8 0.00
4 15:00 78 64 63 S 6 G 18 29.79 1008.8 0.00
4 14:00 78 63 78 64 60 S 4 G 12 29.80 1009.2 0.00
4 13:00 78 60 53 SSW 5 G 14 29.81 1009.5 0.00
4 12:00 77 60 55 SE 3 G 9 29.82 1009.9 0.00
4 11:00 75 59 57 SW 6 G 14 29.82 1009.9 0.00
4 10:00 74 60 62 SE 2 G 8 29.81 1009.5 0.00
4 09:00 72 62 71 SSW 4 G 8 29.83 1010.2 0.00
4 08:00 66 57 66 51 72 S 2 G 11 29.84 1010.5 0.00
4 07:00 61 51 69 SSW 3 G 6 29.84 1010.5 0.00
4 06:00 55 41 59 S 1 G 2 29.83 1010.2 0.00
4 05:00 55 43 63 S 1 G 2 29.81 1009.5 0.00
4 04:00 56 44 65 S 1 G 2 29.80 1009.2 0.00
4 03:00 58 48 69 SE 1 G 2 29.79 1008.8 0.00
4 02:00 58 49 70 55 72 E 0 G 2 29.78 1008.5 0.00
4 01:00 63 56 79 SE 1 G 4 29.77 1008.2 0.00
4 00:00 64 57 79 SE 1 G 4 29.76 1007.8 0.00
3 23:00 63 55 76 SSE 2 G 6 29.76 1007.8 0.00
3 22:00 64 54 70 SE 1 G 4 29.75 1007.5 0.00
3 21:00 66 56 70 E 1 G 2 29.72 1006.5 0.00
3 20:00 70 61 84 67 73 S 1 G 4 29.70 1005.8 0.00
3 19:00 74 62 67 WSW 1 G 6 29.68 1005.1 0.00
3 18:00 77 63 62 SSW 3 G 7 29.66 1004.4 0.00
3 17:00 83 64 53 SE 2 G 11 29.65 1004.1 0.00
3 16:00 83 66 57 S 4 G 10 29.65 1004.1 0.00
3 15:00 83 70 64 S 3 G 7 29.65 1004.1 0.00

Data generated by WxSolution Version 1.9.1.8, Build 2020.02.16.